createdAt,value
2022-11-16T00:00:04.435Z,7.10
2022-11-16T00:02:37.324Z,7.43
2022-11-16T00:05:08.855Z,7.43
2022-11-16T00:07:40.393Z,7.87
2022-11-16T00:10:11.879Z,7.43
2022-11-16T00:12:43.178Z,7.47
2022-11-16T00:15:14.453Z,8.50
2022-11-16T00:17:45.699Z,7.70
2022-11-16T00:20:16.994Z,9.10
2022-11-16T00:22:48.327Z,7.50
2022-11-16T00:25:19.580Z,7.97
2022-11-16T00:27:50.841Z,8.13
2022-11-16T00:30:22.129Z,8.87
2022-11-16T00:32:53.529Z,9.20
2022-11-16T00:35:24.794Z,8.07
2022-11-16T00:37:56.056Z,8.73
2022-11-16T00:40:27.326Z,9.00
2022-11-16T00:42:58.642Z,8.97
2022-11-16T00:45:29.973Z,8.97
2022-11-16T00:48:01.256Z,9.23
2022-11-16T00:50:32.582Z,8.60
2022-11-16T00:53:05.166Z,8.00
2022-11-16T00:55:37.542Z,9.33
2022-11-16T00:58:08.826Z,8.80
2022-11-16T01:00:40.985Z,9.77
2022-11-16T01:03:12.368Z,9.40
2022-11-16T01:05:43.650Z,9.00
2022-11-16T01:08:14.921Z,8.57
2022-11-16T01:10:46.193Z,9.30
2022-11-16T01:13:17.468Z,9.70
2022-11-16T01:15:48.898Z,8.80
2022-11-16T01:18:20.151Z,9.83
2022-11-16T01:20:53.513Z,9.47
2022-11-16T01:23:24.863Z,9.53
2022-11-16T01:26:01.730Z,10.40
2022-11-16T01:28:33.480Z,10.03
2022-11-16T01:31:05.045Z,10.70
2022-11-16T01:33:36.973Z,9.97
2022-11-16T01:36:14.180Z,9.80
2022-11-16T01:38:47.079Z,11.57
2022-11-16T01:41:22.026Z,10.67
2022-11-16T01:43:56.014Z,11.07
2022-11-16T01:46:28.825Z,11.47
2022-11-16T01:49:08.029Z,11.23
2022-11-16T01:51:42.463Z,10.80
2022-11-16T01:54:14.467Z,12.00
2022-11-16T01:56:48.075Z,11.83
2022-11-16T01:59:19.498Z,11.93
2022-11-16T02:01:50.820Z,13.23
2022-11-16T02:04:22.128Z,13.10
2022-11-16T02:07:30.144Z,11.30
2022-11-16T02:10:28.937Z,12.50
2022-11-16T02:13:45.511Z,13.13
2022-11-16T02:16:42.025Z,12.67
2022-11-16T02:19:24.311Z,13.07
2022-11-16T02:22:34.347Z,14.13
2022-11-16T02:25:29.426Z,13.60
2022-11-16T02:28:29.744Z,13.07
2022-11-16T02:31:05.420Z,14.20
2022-11-16T02:33:41.669Z,13.63
2022-11-16T02:38:54.342Z,13.70
2022-11-16T02:41:28.413Z,12.70
2022-11-16T02:44:21.417Z,14.30
2022-11-16T02:46:58.308Z,13.97
2022-11-16T02:49:32.589Z,14.00
2022-11-16T02:52:04.740Z,14.63
2022-11-16T02:54:36.005Z,13.47
2022-11-16T02:57:07.274Z,14.97
2022-11-16T02:59:44.315Z,16.03
2022-11-16T03:02:38.140Z,15.23
2022-11-16T03:05:20.296Z,13.07
2022-11-16T03:08:09.839Z,13.97
2022-11-16T03:11:03.396Z,14.43
2022-11-16T03:13:37.403Z,14.63
2022-11-16T03:16:23.193Z,14.77
2022-11-16T03:18:58.304Z,14.93
2022-11-16T03:21:58.037Z,15.23
2022-11-16T03:24:29.465Z,15.07
2022-11-16T03:27:21.708Z,14.67
2022-11-16T03:29:52.932Z,14.77
2022-11-16T03:32:33.417Z,14.13
2022-11-16T03:35:26.473Z,13.30
2022-11-16T03:38:00.413Z,14.53
2022-11-16T03:40:34.240Z,14.83
2022-11-16T03:43:07.711Z,15.10
2022-11-16T03:45:39.033Z,14.07
2022-11-16T03:48:11.567Z,14.57
2022-11-16T03:50:43.657Z,13.93
2022-11-16T03:53:14.998Z,14.47
2022-11-16T03:55:49.754Z,13.73
2022-11-16T03:58:21.714Z,13.40
2022-11-16T04:00:53.351Z,15.73
2022-11-16T04:03:24.677Z,14.10
2022-11-16T04:06:14.489Z,14.53
2022-11-16T04:09:04.221Z,13.47
2022-11-16T04:11:54.633Z,15.17
2022-11-16T04:14:46.170Z,15.10
2022-11-16T04:17:37.671Z,13.87
2022-11-16T04:20:29.605Z,13.40
2022-11-16T04:23:27.906Z,13.77
2022-11-16T04:25:59.872Z,13.10
2022-11-16T04:28:34.291Z,15.13
2022-11-16T04:31:24.996Z,14.67
2022-11-16T04:34:14.821Z,13.83
2022-11-16T04:37:05.740Z,14.57
2022-11-16T04:39:37.073Z,14.17
2022-11-16T04:42:22.186Z,14.07
2022-11-16T04:45:11.928Z,14.00
2022-11-16T04:47:43.206Z,14.20
2022-11-16T04:50:14.558Z,13.90
2022-11-16T04:52:46.011Z,14.07
2022-11-16T04:55:17.445Z,14.40
2022-11-16T04:57:49.036Z,14.83
2022-11-16T05:00:21.154Z,12.57
2022-11-16T05:02:55.688Z,13.73
2022-11-16T05:05:31.191Z,12.97
2022-11-16T05:08:02.495Z,13.80
2022-11-16T05:10:33.868Z,14.30
2022-11-16T05:13:05.159Z,13.83
2022-11-16T05:15:36.428Z,13.57
2022-11-16T05:18:07.693Z,14.33
2022-11-16T05:20:57.388Z,12.20
2022-11-16T05:23:47.424Z,12.93
2022-11-16T05:26:18.788Z,14.10
2022-11-16T05:28:50.053Z,13.07
2022-11-16T05:31:21.319Z,14.20
2022-11-16T05:33:52.597Z,14.13
2022-11-16T05:36:23.954Z,13.33
2022-11-16T05:38:56.470Z,14.83
2022-11-16T05:41:27.970Z,12.93
2022-11-16T05:43:59.443Z,13.60
2022-11-16T05:46:30.759Z,13.97
2022-11-16T05:49:02.153Z,13.70
2022-11-16T05:51:35.309Z,13.07
2022-11-16T05:54:06.839Z,14.53
2022-11-16T05:56:38.491Z,13.67
2022-11-16T05:59:16.432Z,13.93
2022-11-16T06:01:48.227Z,13.17
2022-11-16T06:04:24.333Z,13.30
2022-11-16T06:06:56.046Z,12.13
2022-11-16T06:09:27.419Z,13.07
2022-11-16T06:11:58.822Z,12.83
2022-11-16T06:14:30.109Z,14.33
2022-11-16T06:17:01.377Z,14.57
2022-11-16T06:19:32.861Z,13.70
2022-11-16T06:22:04.206Z,14.57
2022-11-16T06:24:35.529Z,12.93
2022-11-16T06:27:06.793Z,14.43
2022-11-16T06:29:38.047Z,12.17
2022-11-16T06:32:09.389Z,12.73
2022-11-16T06:34:40.674Z,11.20
2022-11-16T06:37:12.020Z,12.90
2022-11-16T06:39:43.299Z,13.13
2022-11-16T06:42:14.636Z,13.00
2022-11-16T06:44:45.887Z,12.70
2022-11-16T06:47:17.148Z,13.97
2022-11-16T06:49:48.431Z,12.90
2022-11-16T06:52:19.747Z,13.17
2022-11-16T06:54:51.036Z,13.17
2022-11-16T06:57:22.457Z,12.37
2022-11-16T06:59:53.919Z,12.20
2022-11-16T07:02:25.179Z,13.90
2022-11-16T07:05:02.090Z,13.17
2022-11-16T07:07:34.750Z,14.10
2022-11-16T07:10:07.340Z,12.33
2022-11-16T07:12:38.781Z,13.60
2022-11-16T07:15:10.445Z,12.43
2022-11-16T07:17:42.810Z,13.87
2022-11-16T07:20:14.186Z,13.53
2022-11-16T07:22:45.519Z,13.00
2022-11-16T07:25:16.815Z,13.10
2022-11-16T07:27:48.067Z,13.00
2022-11-16T07:30:19.495Z,13.23
2022-11-16T07:32:50.773Z,12.47
2022-11-16T07:35:22.029Z,11.80
2022-11-16T07:37:53.364Z,12.87
2022-11-16T07:40:24.753Z,13.00
2022-11-16T07:42:57.713Z,12.97
2022-11-16T07:45:29.252Z,12.50
2022-11-16T07:48:00.929Z,10.23
2022-11-16T07:50:32.247Z,12.63
2022-11-16T07:53:03.517Z,12.97
2022-11-16T07:55:34.841Z,12.47
2022-11-16T07:58:06.168Z,13.77
2022-11-16T08:00:37.447Z,14.90
2022-11-16T08:03:08.817Z,12.17
2022-11-16T08:05:40.234Z,13.73
2022-11-16T08:08:12.619Z,14.80
2022-11-16T08:10:44.212Z,13.60
2022-11-16T08:13:15.949Z,13.30
2022-11-16T08:15:47.269Z,13.03
2022-11-16T08:18:19.929Z,13.03
2022-11-16T08:20:55.384Z,13.70
2022-11-16T08:23:26.646Z,13.90
2022-11-16T08:26:06.364Z,12.90
2022-11-16T08:28:37.817Z,13.90
2022-11-16T08:31:15.121Z,14.90
2022-11-16T08:33:47.965Z,15.03
2022-11-16T08:36:20.072Z,15.00
2022-11-16T08:38:52.387Z,13.77
2022-11-16T08:41:24.167Z,14.37
2022-11-16T08:43:55.545Z,15.73
2022-11-16T08:46:27.001Z,14.97
2022-11-16T08:48:58.443Z,14.60
2022-11-16T08:51:29.813Z,12.97
2022-11-16T08:54:03.553Z,12.77
2022-11-16T08:56:35.031Z,13.40
2022-11-16T08:59:06.498Z,13.07
2022-11-16T09:01:38.001Z,13.67
2022-11-16T09:04:09.336Z,13.50
2022-11-16T09:06:40.611Z,13.53
2022-11-16T09:09:11.941Z,13.07
2022-11-16T09:11:43.309Z,14.97
2022-11-16T09:14:14.591Z,14.03
2022-11-16T09:16:45.888Z,14.67
2022-11-16T09:19:17.563Z,14.30
2022-11-16T09:21:48.894Z,14.70
2022-11-16T09:24:20.237Z,14.40
2022-11-16T09:26:51.588Z,15.57
2022-11-16T09:29:22.868Z,15.77
2022-11-16T09:31:55.088Z,13.33
2022-11-16T09:34:26.350Z,14.43
2022-11-16T09:36:57.666Z,14.50
2022-11-16T09:39:32.242Z,12.87
2022-11-16T09:42:32.776Z,15.73
2022-11-16T09:45:12.294Z,14.07
2022-11-16T09:47:51.634Z,14.73
2022-11-16T09:50:42.960Z,15.87
2022-11-16T09:53:25.758Z,13.50
2022-11-16T09:56:08.646Z,13.77
2022-11-16T09:58:48.571Z,13.83
2022-11-16T10:01:46.540Z,14.27
2022-11-16T10:04:38.414Z,13.33
2022-11-16T10:07:22.516Z,14.73
2022-11-16T10:09:56.041Z,13.10
2022-11-16T10:13:03.384Z,13.40
2022-11-16T10:15:53.145Z,12.77
2022-11-16T10:18:53.477Z,14.10
2022-11-16T10:21:54.407Z,13.27
2022-11-16T10:24:34.681Z,13.97
2022-11-16T10:27:27.631Z,14.83
2022-11-16T10:30:12.290Z,14.40
2022-11-16T10:32:59.626Z,14.83
2022-11-16T10:35:37.011Z,14.60
2022-11-16T10:38:14.148Z,15.13
2022-11-16T10:40:58.781Z,15.60
2022-11-16T10:43:32.382Z,14.30
2022-11-16T10:46:03.884Z,14.73
2022-11-16T10:48:57.487Z,14.53
2022-11-16T10:51:28.857Z,13.67
2022-11-16T10:54:00.416Z,14.73
2022-11-16T10:56:39.574Z,14.90
2022-11-16T10:59:13.600Z,12.73
2022-11-16T11:01:51.104Z,16.43
2022-11-16T11:04:24.833Z,16.87
2022-11-16T11:07:01.647Z,16.00
2022-11-16T11:09:34.522Z,15.97
2022-11-16T11:12:30.674Z,15.47
2022-11-16T11:15:10.839Z,16.50
2022-11-16T11:17:44.985Z,16.50
2022-11-16T11:20:16.447Z,16.27
2022-11-16T11:23:13.806Z,17.73
2022-11-16T11:28:32.714Z,16.50
2022-11-16T11:31:09.439Z,18.40
2022-11-16T11:33:52.326Z,18.43
2022-11-16T11:36:35.197Z,17.40
2022-11-16T11:39:08.205Z,17.10
2022-11-16T11:41:44.625Z,18.37
2022-11-16T11:44:17.822Z,17.13
2022-11-16T11:47:42.499Z,19.33
2022-11-16T11:49:53.244Z,20.87
2022-11-16T11:52:36.699Z,18.43
2022-11-16T11:55:08.691Z,18.47
2022-11-16T11:57:43.584Z,18.13
2022-11-16T12:00:15.862Z,18.13
2022-11-16T12:03:14.857Z,19.27
2022-11-16T12:06:07.445Z,18.13
2022-11-16T12:09:06.116Z,15.50
2022-11-16T12:12:15.152Z,17.80
2022-11-16T12:15:15.590Z,14.93
2022-11-16T12:18:18.274Z,18.57
2022-11-16T12:20:59.861Z,18.33
2022-11-16T12:23:49.890Z,18.27
2022-11-16T12:26:55.547Z,18.07
2022-11-16T12:29:40.446Z,20.10
2022-11-16T12:32:29.925Z,18.90
2022-11-16T12:35:24.483Z,18.47
2022-11-16T12:38:10.566Z,21.47
2022-11-16T12:40:57.957Z,18.20
2022-11-16T12:43:56.291Z,17.97
2022-11-16T12:46:48.556Z,18.40
2022-11-16T12:49:34.933Z,19.47
2022-11-16T12:52:41.083Z,18.35
2022-11-16T12:55:50.207Z,18.47
2022-11-16T12:58:36.626Z,19.17
2022-11-16T13:01:20.782Z,20.10
2022-11-16T13:04:28.344Z,17.37
2022-11-16T13:07:11.599Z,16.95
2022-11-16T13:09:48.916Z,18.50
2022-11-16T13:12:23.379Z,17.47
2022-11-16T13:14:57.573Z,18.70
2022-11-16T13:17:33.097Z,16.57
2022-11-16T13:20:20.785Z,19.33
2022-11-16T13:23:09.249Z,17.10
2022-11-16T13:25:51.142Z,19.00
2022-11-16T13:28:56.603Z,17.57
2022-11-16T13:31:39.518Z,16.40
2022-11-16T13:34:26.087Z,17.20
2022-11-16T13:36:57.525Z,17.45
2022-11-16T13:39:50.644Z,17.77
2022-11-16T13:42:21.988Z,16.57
2022-11-16T13:44:54.216Z,17.57
2022-11-16T13:47:30.366Z,18.10
2022-11-16T13:50:05.096Z,17.70
2022-11-16T13:54:03.786Z,17.23
2022-11-16T13:55:46.368Z,19.33
2022-11-16T13:58:22.453Z,17.60
2022-11-16T14:00:58.641Z,17.92
2022-11-16T14:06:18.681Z,15.83
2022-11-16T14:08:52.313Z,17.35
2022-11-16T14:11:38.688Z,18.17
2022-11-16T14:14:51.578Z,18.20
2022-11-16T14:17:49.089Z,18.03
2022-11-16T14:20:27.604Z,18.27
2022-11-16T14:23:45.834Z,17.73
2022-11-16T14:29:20.579Z,18.30
2022-11-16T14:31:55.791Z,18.13
2022-11-16T14:34:32.099Z,18.17
2022-11-16T14:39:37.472Z,17.33
2022-11-16T14:42:14.631Z,19.27
2022-11-16T14:44:46.916Z,18.43
2022-11-16T14:47:26.820Z,19.87
2022-11-16T14:49:58.139Z,20.00
2022-11-16T14:52:39.934Z,19.70
2022-11-16T14:55:20.025Z,17.60
2022-11-16T14:58:16.557Z,18.70
2022-11-16T15:00:57.014Z,18.05
2022-11-16T15:03:34.043Z,18.13
2022-11-16T15:06:07.307Z,15.33
2022-11-16T15:08:44.981Z,16.63
2022-11-16T15:11:56.471Z,17.80
2022-11-16T15:14:34.403Z,15.10
2022-11-16T15:17:07.696Z,16.33
2022-11-16T15:19:38.974Z,16.20
2022-11-16T15:22:17.229Z,13.87
2022-11-16T15:24:57.088Z,13.70
2022-11-16T15:27:38.584Z,13.53
2022-11-16T15:30:34.407Z,14.47
2022-11-16T15:33:11.455Z,13.13
2022-11-16T15:35:42.752Z,13.93
2022-11-16T15:38:21.827Z,12.73
2022-11-16T15:40:58.760Z,12.47
2022-11-16T15:43:45.154Z,11.90
2022-11-16T15:46:29.146Z,11.73
2022-11-16T15:49:01.122Z,11.77
2022-11-16T15:51:32.463Z,11.20
2022-11-16T15:54:24.339Z,9.87
2022-11-16T15:57:04.998Z,11.90
2022-11-16T15:59:37.138Z,12.30
2022-11-16T16:02:18.200Z,11.27
2022-11-16T16:04:50.276Z,13.50
2022-11-16T16:07:42.941Z,11.17
2022-11-16T16:10:20.121Z,9.70
2022-11-16T16:12:57.024Z,10.07
2022-11-16T16:15:34.009Z,9.53
2022-11-16T16:18:34.925Z,10.40
2022-11-16T16:21:06.458Z,10.57
2022-11-16T16:23:49.653Z,10.07
2022-11-16T16:26:22.305Z,10.47
2022-11-16T16:28:53.613Z,11.10
2022-11-16T16:31:24.938Z,11.47
2022-11-16T16:33:56.260Z,10.60
2022-11-16T16:36:27.606Z,11.50
2022-11-16T16:38:58.876Z,13.07
2022-11-16T16:41:30.129Z,14.57
2022-11-16T16:44:01.400Z,12.60
2022-11-16T16:46:32.656Z,13.70
2022-11-16T16:49:03.912Z,13.50
2022-11-16T16:51:35.206Z,14.80
2022-11-16T16:54:06.825Z,12.13
2022-11-16T16:56:38.122Z,12.80
2022-11-16T16:59:12.308Z,13.50
2022-11-16T17:01:43.611Z,12.93
2022-11-16T17:04:14.921Z,13.03
2022-11-16T17:06:46.755Z,12.47
2022-11-16T17:09:18.548Z,11.30
2022-11-16T17:11:49.919Z,12.17
2022-11-16T17:14:24.511Z,11.87
2022-11-16T17:16:55.804Z,12.83
2022-11-16T17:19:28.177Z,13.73
2022-11-16T17:21:59.963Z,10.57
2022-11-16T17:24:31.369Z,11.20
2022-11-16T17:27:03.059Z,11.63
2022-11-16T17:29:34.473Z,11.13
2022-11-16T17:32:06.037Z,12.07
2022-11-16T17:34:39.855Z,9.97
2022-11-16T17:37:11.362Z,11.63
2022-11-16T17:39:42.931Z,11.53
2022-11-16T17:42:14.285Z,11.27
2022-11-16T17:44:45.593Z,11.23
2022-11-16T17:47:16.893Z,10.60
2022-11-16T17:49:48.316Z,9.60
2022-11-16T17:52:19.595Z,9.07
2022-11-16T17:54:50.965Z,9.23
2022-11-16T17:57:22.285Z,9.60
2022-11-16T17:59:53.717Z,9.70
2022-11-16T18:02:25.206Z,9.20
2022-11-16T18:04:56.468Z,9.77
2022-11-16T18:07:30.053Z,8.43
2022-11-16T18:10:01.514Z,8.13
2022-11-16T18:12:32.799Z,7.20
2022-11-16T18:15:27.609Z,8.57
2022-11-16T18:17:56.775Z,10.13
2022-11-16T18:20:29.294Z,7.73
2022-11-16T18:23:00.812Z,8.10
2022-11-16T18:25:34.263Z,7.93
2022-11-16T18:28:05.553Z,8.17
2022-11-16T18:30:38.476Z,8.33
2022-11-16T18:33:10.270Z,9.43
2022-11-16T18:35:42.110Z,7.60
2022-11-16T18:38:13.454Z,7.00
2022-11-16T18:40:44.809Z,8.80
2022-11-16T18:43:16.068Z,7.10
2022-11-16T18:45:47.452Z,6.67
2022-11-16T18:48:18.727Z,6.17
2022-11-16T18:50:50.150Z,7.30
2022-11-16T18:53:21.413Z,6.10
2022-11-16T18:55:57.698Z,5.87
2022-11-16T18:58:58.618Z,7.30
2022-11-16T19:01:23.921Z,6.50
2022-11-16T19:03:56.265Z,7.13
2022-11-16T19:06:31.620Z,6.27
2022-11-16T19:09:04.272Z,6.40
2022-11-16T19:11:35.944Z,6.03
2022-11-16T19:14:10.181Z,5.23
2022-11-16T19:16:52.564Z,5.33
2022-11-16T19:19:27.705Z,5.27
2022-11-16T19:21:59.096Z,4.93
2022-11-16T19:24:30.468Z,5.63
2022-11-16T19:27:01.867Z,5.03
2022-11-16T19:29:33.174Z,4.70
2022-11-16T19:32:05.604Z,6.23
2022-11-16T19:34:36.900Z,4.87
2022-11-16T19:37:10.807Z,4.83
2022-11-16T19:39:42.302Z,3.70
2022-11-16T19:42:13.623Z,4.33
2022-11-16T19:44:44.974Z,4.50
2022-11-16T19:47:16.303Z,4.93
2022-11-16T19:49:50.000Z,4.23
2022-11-16T19:52:21.491Z,4.30
2022-11-16T19:54:52.831Z,3.90
2022-11-16T19:57:24.244Z,3.90
2022-11-16T19:59:56.222Z,4.40
2022-11-16T20:02:27.596Z,4.13
2022-11-16T20:04:59.945Z,3.37
2022-11-16T20:07:31.303Z,4.03
2022-11-16T20:10:02.619Z,3.63
2022-11-16T20:12:34.007Z,4.03
2022-11-16T20:15:05.790Z,3.20
2022-11-16T20:17:37.110Z,3.60
2022-11-16T20:20:08.979Z,3.23
2022-11-16T20:22:40.342Z,3.00
2022-11-16T20:25:11.743Z,3.43
2022-11-16T20:27:43.151Z,2.63
2022-11-16T20:30:14.506Z,3.10
2022-11-16T20:32:46.037Z,3.80
2022-11-16T20:35:19.209Z,4.17
2022-11-16T20:37:50.806Z,3.53
2022-11-16T20:40:22.257Z,3.00
2022-11-16T20:42:58.896Z,3.03
2022-11-16T20:45:33.446Z,2.77
2022-11-16T20:48:06.315Z,2.77
2022-11-16T20:50:37.573Z,3.17
2022-11-16T20:53:08.844Z,2.73
2022-11-16T20:55:41.164Z,3.07
2022-11-16T20:58:12.462Z,2.97
2022-11-16T21:00:44.124Z,2.80
2022-11-16T21:03:15.822Z,3.73
2022-11-16T21:05:51.631Z,3.93
2022-11-16T21:08:24.270Z,3.60
2022-11-16T21:10:57.128Z,3.40
2022-11-16T21:13:47.380Z,3.60
2022-11-16T21:16:18.708Z,3.63
2022-11-16T21:18:50.003Z,4.37
2022-11-16T21:21:21.757Z,3.33
2022-11-16T21:23:54.055Z,3.37
2022-11-16T21:26:31.287Z,3.77
2022-11-16T21:29:03.489Z,3.70
2022-11-16T21:31:36.344Z,3.87
2022-11-16T21:34:07.734Z,3.60
2022-11-16T21:36:39.282Z,3.57
2022-11-16T21:39:10.612Z,3.67
2022-11-16T21:41:41.900Z,3.43
2022-11-16T21:44:13.195Z,3.27
2022-11-16T21:46:44.456Z,3.93
2022-11-16T21:49:15.720Z,3.27
2022-11-16T21:51:46.985Z,3.40
2022-11-16T21:54:18.336Z,3.00
2022-11-16T21:56:49.589Z,3.33
2022-11-16T21:59:20.856Z,3.40
2022-11-16T22:02:01.099Z,3.03
2022-11-16T22:04:50.897Z,2.87
2022-11-16T22:07:37.938Z,3.30
2022-11-16T22:10:11.336Z,3.10
2022-11-16T22:12:42.723Z,3.07
2022-11-16T22:15:14.088Z,3.20
2022-11-16T22:17:45.608Z,3.33
2022-11-16T22:20:17.482Z,3.43
2022-11-16T22:22:48.814Z,3.10
2022-11-16T22:25:20.191Z,3.73
2022-11-16T22:28:19.029Z,3.70
2022-11-16T22:30:45.115Z,3.27
2022-11-16T22:33:20.023Z,4.03
2022-11-16T22:35:51.284Z,3.70
2022-11-16T22:38:22.855Z,3.83
2022-11-16T22:40:59.922Z,4.53
2022-11-16T22:43:31.543Z,4.10
2022-11-16T22:46:05.064Z,4.43
2022-11-16T22:48:39.397Z,5.13
2022-11-16T22:51:19.507Z,5.20
2022-11-16T22:53:54.743Z,5.90
2022-11-16T22:56:26.848Z,5.87
2022-11-16T22:58:58.872Z,5.47
2022-11-16T23:01:30.158Z,5.43
2022-11-16T23:04:01.758Z,5.87
2022-11-16T23:06:33.101Z,6.10
2022-11-16T23:09:04.478Z,6.63
2022-11-16T23:11:54.621Z,6.57
2022-11-16T23:14:44.558Z,5.80
2022-11-16T23:17:15.848Z,5.80
2022-11-16T23:20:05.824Z,6.00
2022-11-16T23:22:55.440Z,5.33
2022-11-16T23:25:45.573Z,5.90
2022-11-16T23:28:18.755Z,6.30
2022-11-16T23:30:50.089Z,5.87
2022-11-16T23:33:41.325Z,5.53
2022-11-16T23:36:12.840Z,5.40
2022-11-16T23:38:44.151Z,5.97
2022-11-16T23:41:34.022Z,5.87
2022-11-16T23:44:05.276Z,5.17
2022-11-16T23:46:36.633Z,5.90
2022-11-16T23:49:07.939Z,5.87
2022-11-16T23:51:39.296Z,5.50
2022-11-16T23:54:10.648Z,6.00
2022-11-16T23:56:41.997Z,5.53
2022-11-16T23:59:13.249Z,6.07
